sensor_id;sensor_type;location;lat;lon;timestamp;P1;durP1;ratioP1;P2;durP2;ratioP2
75499;SDS011;64076;51.466;7.260;2023-05-31T00:01:44;9.30;;;7.03;;
75499;SDS011;64076;51.466;7.260;2023-05-31T00:04:09;8.70;;;7.00;;
75499;SDS011;64076;51.466;7.260;2023-05-31T00:06:35;11.83;;;7.13;;
75499;SDS011;64076;51.466;7.260;2023-05-31T00:09:01;9.73;;;6.90;;
75499;SDS011;64076;51.466;7.260;2023-05-31T00:11:27;9.02;;;7.10;;
75499;SDS011;64076;51.466;7.260;2023-05-31T00:13:53;9.00;;;6.90;;
75499;SDS011;64076;51.466;7.260;2023-05-31T00:16:18;9.02;;;6.97;;
75499;SDS011;64076;51.466;7.260;2023-05-31T00:18:44;9.63;;;7.30;;
75499;SDS011;64076;51.466;7.260;2023-05-31T00:21:09;9.73;;;7.27;;
75499;SDS011;64076;51.466;7.260;2023-05-31T00:23:35;9.50;;;7.05;;
75499;SDS011;64076;51.466;7.260;2023-05-31T00:26:00;8.67;;;6.80;;
75499;SDS011;64076;51.466;7.260;2023-05-31T00:28:26;8.82;;;6.95;;
75499;SDS011;64076;51.466;7.260;2023-05-31T00:30:51;8.30;;;7.00;;
75499;SDS011;64076;51.466;7.260;2023-05-31T00:33:17;10.13;;;7.20;;
75499;SDS011;64076;51.466;7.260;2023-05-31T00:35:42;12.07;;;8.00;;
75499;SDS011;64076;51.466;7.260;2023-05-31T00:38:08;9.33;;;7.30;;
75499;SDS011;64076;51.466;7.260;2023-05-31T00:40:34;10.40;;;7.50;;
75499;SDS011;64076;51.466;7.260;2023-05-31T00:43:00;9.40;;;7.50;;
75499;SDS011;64076;51.466;7.260;2023-05-31T00:45:25;11.13;;;7.60;;
75499;SDS011;64076;51.466;7.260;2023-05-31T00:47:51;10.23;;;7.83;;
75499;SDS011;64076;51.466;7.260;2023-05-31T00:50:17;10.10;;;8.25;;
75499;SDS011;64076;51.466;7.260;2023-05-31T00:52:44;9.67;;;8.00;;
75499;SDS011;64076;51.466;7.260;2023-05-31T00:55:12;10.48;;;8.05;;
75499;SDS011;64076;51.466;7.260;2023-05-31T00:57:40;10.23;;;8.27;;
75499;SDS011;64076;51.466;7.260;2023-05-31T01:00:06;10.57;;;7.60;;
75499;SDS011;64076;51.466;7.260;2023-05-31T01:02:33;10.90;;;7.90;;
75499;SDS011;64076;51.466;7.260;2023-05-31T01:04:59;9.73;;;7.13;;
75499;SDS011;64076;51.466;7.260;2023-05-31T01:07:26;10.65;;;8.15;;
75499;SDS011;64076;51.466;7.260;2023-05-31T01:09:51;9.83;;;7.80;;
75499;SDS011;64076;51.466;7.260;2023-05-31T01:17:56;10.93;;;7.88;;
75499;SDS011;64076;51.466;7.260;2023-05-31T01:20:30;10.27;;;8.20;;
75499;SDS011;64076;51.466;7.260;2023-05-31T01:28:37;11.10;;;8.68;;
75499;SDS011;64076;51.466;7.260;2023-05-31T01:31:07;9.60;;;7.60;;
75499;SDS011;64076;51.466;7.260;2023-05-31T01:33:35;12.57;;;8.63;;
75499;SDS011;64076;51.466;7.260;2023-05-31T01:36:01;10.33;;;8.40;;
75499;SDS011;64076;51.466;7.260;2023-05-31T01:38:28;11.20;;;8.65;;
75499;SDS011;64076;51.466;7.260;2023-05-31T01:40:54;11.38;;;7.82;;
75499;SDS011;64076;51.466;7.260;2023-05-31T01:43:21;10.63;;;8.27;;
75499;SDS011;64076;51.466;7.260;2023-05-31T01:45:48;11.70;;;8.70;;
75499;SDS011;64076;51.466;7.260;2023-05-31T01:48:14;10.55;;;8.20;;
75499;SDS011;64076;51.466;7.260;2023-05-31T01:50:41;10.07;;;8.18;;
75499;SDS011;64076;51.466;7.260;2023-05-31T01:53:09;11.57;;;8.73;;
75499;SDS011;64076;51.466;7.260;2023-05-31T01:55:35;9.97;;;8.17;;
75499;SDS011;64076;51.466;7.260;2023-05-31T01:58:00;11.40;;;8.45;;
75499;SDS011;64076;51.466;7.260;2023-05-31T02:00:27;10.35;;;8.35;;
75499;SDS011;64076;51.466;7.260;2023-05-31T02:02:53;10.80;;;8.63;;
75499;SDS011;64076;51.466;7.260;2023-05-31T02:05:20;9.98;;;8.25;;
75499;SDS011;64076;51.466;7.260;2023-05-31T02:07:46;10.52;;;8.60;;
75499;SDS011;64076;51.466;7.260;2023-05-31T02:10:13;12.18;;;9.05;;
75499;SDS011;64076;51.466;7.260;2023-05-31T02:12:38;11.10;;;8.43;;
75499;SDS011;64076;51.466;7.260;2023-05-31T02:15:04;10.77;;;7.90;;
75499;SDS011;64076;51.466;7.260;2023-05-31T02:17:35;10.85;;;8.00;;
75499;SDS011;64076;51.466;7.260;2023-05-31T02:20:02;11.50;;;8.95;;
75499;SDS011;64076;51.466;7.260;2023-05-31T02:22:27;11.90;;;8.90;;
75499;SDS011;64076;51.466;7.260;2023-05-31T02:24:53;11.52;;;9.43;;
75499;SDS011;64076;51.466;7.260;2023-05-31T02:27:19;11.77;;;8.47;;
75499;SDS011;64076;51.466;7.260;2023-05-31T02:29:44;11.27;;;8.73;;
75499;SDS011;64076;51.466;7.260;2023-05-31T02:32:11;12.45;;;9.10;;
75499;SDS011;64076;51.466;7.260;2023-05-31T02:34:36;10.18;;;9.02;;
75499;SDS011;64076;51.466;7.260;2023-05-31T02:37:02;10.30;;;8.47;;
75499;SDS011;64076;51.466;7.260;2023-05-31T02:39:28;11.30;;;8.90;;
75499;SDS011;64076;51.466;7.260;2023-05-31T02:41:54;10.57;;;8.32;;
75499;SDS011;64076;51.466;7.260;2023-05-31T02:44:20;9.93;;;8.60;;
75499;SDS011;64076;51.466;7.260;2023-05-31T02:46:45;10.55;;;8.70;;
75499;SDS011;64076;51.466;7.260;2023-05-31T02:49:11;11.10;;;8.80;;
75499;SDS011;64076;51.466;7.260;2023-05-31T02:51:36;11.53;;;8.30;;
75499;SDS011;64076;51.466;7.260;2023-05-31T02:54:02;11.02;;;8.65;;
75499;SDS011;64076;51.466;7.260;2023-05-31T02:56:27;12.07;;;8.83;;
75499;SDS011;64076;51.466;7.260;2023-05-31T02:58:53;11.30;;;9.03;;
75499;SDS011;64076;51.466;7.260;2023-05-31T03:01:19;11.40;;;8.93;;
75499;SDS011;64076;51.466;7.260;2023-05-31T03:03:44;11.03;;;8.77;;
75499;SDS011;64076;51.466;7.260;2023-05-31T03:06:09;10.67;;;8.43;;
75499;SDS011;64076;51.466;7.260;2023-05-31T03:08:36;10.95;;;9.05;;
75499;SDS011;64076;51.466;7.260;2023-05-31T03:11:02;10.63;;;8.52;;
75499;SDS011;64076;51.466;7.260;2023-05-31T03:13:27;10.90;;;8.80;;
75499;SDS011;64076;51.466;7.260;2023-05-31T03:15:53;11.83;;;9.10;;
75499;SDS011;64076;51.466;7.260;2023-05-31T03:18:19;11.02;;;8.77;;
75499;SDS011;64076;51.466;7.260;2023-05-31T03:20:44;11.67;;;9.00;;
75499;SDS011;64076;51.466;7.260;2023-05-31T03:23:10;10.98;;;8.38;;
75499;SDS011;64076;51.466;7.260;2023-05-31T03:25:35;11.67;;;8.67;;
75499;SDS011;64076;51.466;7.260;2023-05-31T03:28:01;10.47;;;8.37;;
75499;SDS011;64076;51.466;7.260;2023-05-31T03:30:28;11.43;;;8.82;;
75499;SDS011;64076;51.466;7.260;2023-05-31T03:32:53;10.03;;;8.57;;
75499;SDS011;64076;51.466;7.260;2023-05-31T03:35:19;11.10;;;8.73;;
75499;SDS011;64076;51.466;7.260;2023-05-31T03:37:45;10.57;;;8.63;;
75499;SDS011;64076;51.466;7.260;2023-05-31T03:40:10;11.88;;;8.80;;
75499;SDS011;64076;51.466;7.260;2023-05-31T03:42:36;10.50;;;8.57;;
75499;SDS011;64076;51.466;7.260;2023-05-31T03:45:02;11.40;;;9.10;;
75499;SDS011;64076;51.466;7.260;2023-05-31T03:47:28;11.13;;;9.30;;
75499;SDS011;64076;51.466;7.260;2023-05-31T03:49:54;11.90;;;8.70;;
75499;SDS011;64076;51.466;7.260;2023-05-31T03:52:19;11.37;;;8.80;;
75499;SDS011;64076;51.466;7.260;2023-05-31T03:54:46;10.18;;;8.68;;
75499;SDS011;64076;51.466;7.260;2023-05-31T03:57:12;11.37;;;9.17;;
75499;SDS011;64076;51.466;7.260;2023-05-31T03:59:37;13.88;;;9.48;;
75499;SDS011;64076;51.466;7.260;2023-05-31T04:02:03;10.87;;;9.07;;
75499;SDS011;64076;51.466;7.260;2023-05-31T04:04:29;10.95;;;9.15;;
75499;SDS011;64076;51.466;7.260;2023-05-31T04:06:55;11.40;;;9.27;;
75499;SDS011;64076;51.466;7.260;2023-05-31T04:09:21;12.13;;;9.20;;
75499;SDS011;64076;51.466;7.260;2023-05-31T04:11:48;11.90;;;9.20;;
75499;SDS011;64076;51.466;7.260;2023-05-31T04:14:14;13.25;;;9.30;;
75499;SDS011;64076;51.466;7.260;2023-05-31T04:16:39;13.17;;;9.77;;
75499;SDS011;64076;51.466;7.260;2023-05-31T04:19:05;11.77;;;9.30;;
75499;SDS011;64076;51.466;7.260;2023-05-31T04:21:30;10.93;;;9.07;;
75499;SDS011;64076;51.466;7.260;2023-05-31T04:23:57;11.27;;;9.13;;
75499;SDS011;64076;51.466;7.260;2023-05-31T04:26:23;12.20;;;8.82;;
75499;SDS011;64076;51.466;7.260;2023-05-31T04:28:49;11.52;;;9.30;;
75499;SDS011;64076;51.466;7.260;2023-05-31T04:31:18;13.60;;;9.73;;
75499;SDS011;64076;51.466;7.260;2023-05-31T04:33:44;10.88;;;9.15;;
75499;SDS011;64076;51.466;7.260;2023-05-31T04:36:09;10.97;;;8.77;;
75499;SDS011;64076;51.466;7.260;2023-05-31T04:38:35;12.80;;;9.32;;
75499;SDS011;64076;51.466;7.260;2023-05-31T04:41:01;12.70;;;9.10;;
75499;SDS011;64076;51.466;7.260;2023-05-31T04:43:28;14.02;;;9.23;;
75499;SDS011;64076;51.466;7.260;2023-05-31T04:45:54;12.13;;;9.38;;
75499;SDS011;64076;51.466;7.260;2023-05-31T04:48:20;12.20;;;9.60;;
75499;SDS011;64076;51.466;7.260;2023-05-31T04:50:47;11.85;;;9.27;;
75499;SDS011;64076;51.466;7.260;2023-05-31T04:53:13;11.38;;;8.70;;
75499;SDS011;64076;51.466;7.260;2023-05-31T04:55:39;12.70;;;9.40;;
75499;SDS011;64076;51.466;7.260;2023-05-31T04:58:05;12.70;;;9.17;;
75499;SDS011;64076;51.466;7.260;2023-05-31T05:00:32;12.10;;;9.18;;
75499;SDS011;64076;51.466;7.260;2023-05-31T05:02:59;10.35;;;8.95;;
75499;SDS011;64076;51.466;7.260;2023-05-31T05:05:25;12.02;;;9.50;;
75499;SDS011;64076;51.466;7.260;2023-05-31T05:07:51;12.55;;;9.40;;
75499;SDS011;64076;51.466;7.260;2023-05-31T05:10:17;12.10;;;9.57;;
75499;SDS011;64076;51.466;7.260;2023-05-31T05:12:42;13.90;;;9.70;;
75499;SDS011;64076;51.466;7.260;2023-05-31T05:15:08;11.63;;;8.85;;
75499;SDS011;64076;51.466;7.260;2023-05-31T05:17:36;11.82;;;8.98;;
75499;SDS011;64076;51.466;7.260;2023-05-31T05:20:02;10.30;;;7.70;;
75499;SDS011;64076;51.466;7.260;2023-05-31T05:22:30;9.38;;;7.57;;
75499;SDS011;64076;51.466;7.260;2023-05-31T05:24:55;9.47;;;7.23;;
75499;SDS011;64076;51.466;7.260;2023-05-31T05:27:21;10.35;;;7.30;;
75499;SDS011;64076;51.466;7.260;2023-05-31T05:29:46;10.07;;;6.73;;
75499;SDS011;64076;51.466;7.260;2023-05-31T05:32:12;65.45;;;10.75;;
75499;SDS011;64076;51.466;7.260;2023-05-31T05:34:38;18.40;;;6.87;;
75499;SDS011;64076;51.466;7.260;2023-05-31T05:37:04;37.93;;;7.60;;
75499;SDS011;64076;51.466;7.260;2023-05-31T05:39:30;60.30;;;9.47;;
75499;SDS011;64076;51.466;7.260;2023-05-31T05:41:56;52.97;;;7.82;;
75499;SDS011;64076;51.466;7.260;2023-05-31T05:44:21;35.73;;;7.07;;
75499;SDS011;64076;51.466;7.260;2023-05-31T05:46:47;31.50;;;7.77;;
75499;SDS011;64076;51.466;7.260;2023-05-31T05:49:12;28.67;;;6.80;;
75499;SDS011;64076;51.466;7.260;2023-05-31T05:51:38;30.33;;;6.63;;
75499;SDS011;64076;51.466;7.260;2023-05-31T05:54:03;24.77;;;6.07;;
75499;SDS011;64076;51.466;7.260;2023-05-31T05:56:29;20.85;;;6.80;;
75499;SDS011;64076;51.466;7.260;2023-05-31T05:58:54;12.37;;;5.97;;
75499;SDS011;64076;51.466;7.260;2023-05-31T06:01:20;16.17;;;5.90;;
75499;SDS011;64076;51.466;7.260;2023-05-31T06:03:46;16.00;;;6.50;;
75499;SDS011;64076;51.466;7.260;2023-05-31T06:06:13;12.18;;;5.85;;
75499;SDS011;64076;51.466;7.260;2023-05-31T06:08:39;13.03;;;5.87;;
75499;SDS011;64076;51.466;7.260;2023-05-31T06:11:04;11.57;;;5.70;;
75499;SDS011;64076;51.466;7.260;2023-05-31T06:13:30;12.77;;;6.27;;
75499;SDS011;64076;51.466;7.260;2023-05-31T06:15:56;10.77;;;5.87;;
75499;SDS011;64076;51.466;7.260;2023-05-31T06:18:22;9.60;;;5.60;;
75499;SDS011;64076;51.466;7.260;2023-05-31T06:20:47;10.35;;;6.35;;
75499;SDS011;64076;51.466;7.260;2023-05-31T06:23:14;9.30;;;6.10;;
75499;SDS011;64076;51.466;7.260;2023-05-31T06:25:40;10.43;;;6.65;;
75499;SDS011;64076;51.466;7.260;2023-05-31T06:28:06;13.87;;;7.83;;
75499;SDS011;64076;51.466;7.260;2023-05-31T06:30:31;12.38;;;7.38;;
75499;SDS011;64076;51.466;7.260;2023-05-31T06:32:57;13.93;;;8.23;;
75499;SDS011;64076;51.466;7.260;2023-05-31T06:35:25;13.27;;;8.10;;
75499;SDS011;64076;51.466;7.260;2023-05-31T06:37:51;14.63;;;7.87;;
75499;SDS011;64076;51.466;7.260;2023-05-31T06:40:16;11.15;;;7.35;;
75499;SDS011;64076;51.466;7.260;2023-05-31T06:42:42;11.90;;;7.20;;
75499;SDS011;64076;51.466;7.260;2023-05-31T06:45:08;13.05;;;7.38;;
75499;SDS011;64076;51.466;7.260;2023-05-31T06:47:34;11.43;;;6.50;;
75499;SDS011;64076;51.466;7.260;2023-05-31T06:49:59;10.45;;;5.18;;
75499;SDS011;64076;51.466;7.260;2023-05-31T06:52:25;37.63;;;9.30;;
75499;SDS011;64076;51.466;7.260;2023-05-31T06:54:50;18.40;;;7.55;;
75499;SDS011;64076;51.466;7.260;2023-05-31T06:57:16;21.77;;;7.47;;
75499;SDS011;64076;51.466;7.260;2023-05-31T06:59:42;17.10;;;8.68;;
75499;SDS011;64076;51.466;7.260;2023-05-31T07:02:08;13.60;;;7.70;;
75499;SDS011;64076;51.466;7.260;2023-05-31T07:04:33;15.05;;;8.15;;
75499;SDS011;64076;51.466;7.260;2023-05-31T07:06:59;16.40;;;7.60;;
75499;SDS011;64076;51.466;7.260;2023-05-31T07:09:24;16.25;;;8.30;;
75499;SDS011;64076;51.466;7.260;2023-05-31T07:11:50;13.67;;;8.50;;
75499;SDS011;64076;51.466;7.260;2023-05-31T07:14:16;14.57;;;7.50;;
75499;SDS011;64076;51.466;7.260;2023-05-31T07:16:41;15.20;;;7.43;;
75499;SDS011;64076;51.466;7.260;2023-05-31T07:19:07;13.88;;;6.68;;
75499;SDS011;64076;51.466;7.260;2023-05-31T07:21:32;14.00;;;7.27;;
75499;SDS011;64076;51.466;7.260;2023-05-31T07:23:58;26.50;;;7.70;;
75499;SDS011;64076;51.466;7.260;2023-05-31T07:26:23;16.02;;;6.53;;
75499;SDS011;64076;51.466;7.260;2023-05-31T07:28:49;18.92;;;6.90;;
75499;SDS011;64076;51.466;7.260;2023-05-31T07:31:18;13.57;;;6.47;;
75499;SDS011;64076;51.466;7.260;2023-05-31T07:33:45;18.08;;;9.18;;
75499;SDS011;64076;51.466;7.260;2023-05-31T07:36:10;23.75;;;7.60;;
75499;SDS011;64076;51.466;7.260;2023-05-31T07:38:36;12.27;;;6.53;;
75499;SDS011;64076;51.466;7.260;2023-05-31T07:41:02;15.15;;;6.75;;
75499;SDS011;64076;51.466;7.260;2023-05-31T07:43:28;12.87;;;6.73;;
75499;SDS011;64076;51.466;7.260;2023-05-31T07:45:54;15.88;;;7.00;;
75499;SDS011;64076;51.466;7.260;2023-05-31T07:48:22;14.02;;;6.57;;
75499;SDS011;64076;51.466;7.260;2023-05-31T07:50:48;18.55;;;7.00;;
75499;SDS011;64076;51.466;7.260;2023-05-31T07:53:14;17.23;;;6.67;;
75499;SDS011;64076;51.466;7.260;2023-05-31T07:55:40;20.92;;;9.95;;
75499;SDS011;64076;51.466;7.260;2023-05-31T07:58:06;19.23;;;9.90;;
75499;SDS011;64076;51.466;7.260;2023-05-31T08:00:31;19.60;;;10.20;;
75499;SDS011;64076;51.466;7.260;2023-05-31T08:02:57;10.30;;;6.57;;
75499;SDS011;64076;51.466;7.260;2023-05-31T08:05:23;14.50;;;7.47;;
75499;SDS011;64076;51.466;7.260;2023-05-31T08:07:48;20.77;;;7.17;;
75499;SDS011;64076;51.466;7.260;2023-05-31T08:10:17;21.48;;;6.70;;
75499;SDS011;64076;51.466;7.260;2023-05-31T08:12:43;15.75;;;6.47;;
75499;SDS011;64076;51.466;7.260;2023-05-31T08:15:09;13.33;;;5.40;;
75499;SDS011;64076;51.466;7.260;2023-05-31T08:17:35;14.90;;;5.50;;
75499;SDS011;64076;51.466;7.260;2023-05-31T08:20:01;18.97;;;5.87;;
75499;SDS011;64076;51.466;7.260;2023-05-31T08:22:31;17.02;;;6.20;;
75499;SDS011;64076;51.466;7.260;2023-05-31T08:24:56;12.83;;;5.40;;
75499;SDS011;64076;51.466;7.260;2023-05-31T08:27:22;8.68;;;5.07;;
75499;SDS011;64076;51.466;7.260;2023-05-31T08:29:48;10.97;;;5.10;;
75499;SDS011;64076;51.466;7.260;2023-05-31T08:32:14;16.02;;;4.97;;
75499;SDS011;64076;51.466;7.260;2023-05-31T08:34:39;11.48;;;4.72;;
75499;SDS011;64076;51.466;7.260;2023-05-31T08:37:05;12.23;;;4.70;;
75499;SDS011;64076;51.466;7.260;2023-05-31T08:39:31;14.00;;;5.27;;
75499;SDS011;64076;51.466;7.260;2023-05-31T08:44:28;14.80;;;5.18;;
75499;SDS011;64076;51.466;7.260;2023-05-31T08:46:58;17.20;;;5.07;;
75499;SDS011;64076;51.466;7.260;2023-05-31T08:49:32;21.42;;;5.03;;
75499;SDS011;64076;51.466;7.260;2023-05-31T08:51:59;16.10;;;4.50;;
75499;SDS011;64076;51.466;7.260;2023-05-31T08:54:25;7.07;;;4.50;;
75499;SDS011;64076;51.466;7.260;2023-05-31T08:56:51;12.20;;;4.35;;
75499;SDS011;64076;51.466;7.260;2023-05-31T08:59:18;8.37;;;3.80;;
75499;SDS011;64076;51.466;7.260;2023-05-31T09:01:44;24.60;;;5.45;;
75499;SDS011;64076;51.466;7.260;2023-05-31T09:04:10;15.10;;;4.80;;
75499;SDS011;64076;51.466;7.260;2023-05-31T09:06:38;24.95;;;9.63;;
75499;SDS011;64076;51.466;7.260;2023-05-31T09:09:04;17.10;;;7.40;;
75499;SDS011;64076;51.466;7.260;2023-05-31T09:11:33;14.68;;;5.88;;
75499;SDS011;64076;51.466;7.260;2023-05-31T09:14:02;12.05;;;4.80;;
75499;SDS011;64076;51.466;7.260;2023-05-31T09:16:29;10.80;;;4.10;;
75499;SDS011;64076;51.466;7.260;2023-05-31T09:19:00;8.03;;;3.43;;
75499;SDS011;64076;51.466;7.260;2023-05-31T09:21:28;7.53;;;3.47;;
75499;SDS011;64076;51.466;7.260;2023-05-31T09:23:57;6.07;;;3.05;;
75499;SDS011;64076;51.466;7.260;2023-05-31T09:26:24;10.73;;;3.40;;
75499;SDS011;64076;51.466;7.260;2023-05-31T09:28:51;11.25;;;3.40;;
75499;SDS011;64076;51.466;7.260;2023-05-31T09:31:17;7.40;;;3.00;;
75499;SDS011;64076;51.466;7.260;2023-05-31T09:33:44;8.77;;;3.10;;
75499;SDS011;64076;51.466;7.260;2023-05-31T09:36:13;9.03;;;3.47;;
75499;SDS011;64076;51.466;7.260;2023-05-31T09:38:39;8.07;;;3.30;;
75499;SDS011;64076;51.466;7.260;2023-05-31T09:41:18;7.53;;;3.38;;
75499;SDS011;64076;51.466;7.260;2023-05-31T09:43:48;8.88;;;3.63;;
75499;SDS011;64076;51.466;7.260;2023-05-31T09:46:15;6.53;;;3.13;;
75499;SDS011;64076;51.466;7.260;2023-05-31T09:48:43;9.93;;;3.60;;
75499;SDS011;64076;51.466;7.260;2023-05-31T09:51:10;9.88;;;3.20;;
75499;SDS011;64076;51.466;7.260;2023-05-31T09:53:44;12.18;;;4.32;;
75499;SDS011;64076;51.466;7.260;2023-05-31T09:56:11;11.88;;;3.88;;
75499;SDS011;64076;51.466;7.260;2023-05-31T09:58:42;12.27;;;3.70;;
75499;SDS011;64076;51.466;7.260;2023-05-31T10:01:07;7.80;;;3.40;;
75499;SDS011;64076;51.466;7.260;2023-05-31T10:03:34;14.43;;;4.13;;
75499;SDS011;64076;51.466;7.260;2023-05-31T10:06:00;15.90;;;3.70;;
75499;SDS011;64076;51.466;7.260;2023-05-31T10:08:26;18.75;;;3.50;;
75499;SDS011;64076;51.466;7.260;2023-05-31T10:10:53;8.32;;;2.67;;
75499;SDS011;64076;51.466;7.260;2023-05-31T10:13:20;14.18;;;2.65;;
75499;SDS011;64076;51.466;7.260;2023-05-31T10:15:48;11.33;;;3.10;;
75499;SDS011;64076;51.466;7.260;2023-05-31T10:18:16;12.50;;;3.22;;
75499;SDS011;64076;51.466;7.260;2023-05-31T10:20:52;8.98;;;3.08;;
75499;SDS011;64076;51.466;7.260;2023-05-31T10:23:24;10.13;;;3.10;;
75499;SDS011;64076;51.466;7.260;2023-05-31T10:25:55;6.30;;;2.78;;
75499;SDS011;64076;51.466;7.260;2023-05-31T10:28:28;6.27;;;2.10;;
75499;SDS011;64076;51.466;7.260;2023-05-31T10:30:58;9.00;;;2.00;;
75499;SDS011;64076;51.466;7.260;2023-05-31T10:33:26;19.75;;;4.35;;
75499;SDS011;64076;51.466;7.260;2023-05-31T10:35:56;10.02;;;2.72;;
75499;SDS011;64076;51.466;7.260;2023-05-31T10:38:24;18.60;;;3.47;;
75499;SDS011;64076;51.466;7.260;2023-05-31T10:41:03;8.47;;;3.17;;
75499;SDS011;64076;51.466;7.260;2023-05-31T10:43:43;7.00;;;2.35;;
75499;SDS011;64076;51.466;7.260;2023-05-31T10:46:16;10.40;;;2.42;;
75499;SDS011;64076;51.466;7.260;2023-05-31T10:48:46;8.65;;;2.40;;
75499;SDS011;64076;51.466;7.260;2023-05-31T10:51:37;6.25;;;2.35;;
75499;SDS011;64076;51.466;7.260;2023-05-31T10:54:04;8.30;;;2.20;;
75499;SDS011;64076;51.466;7.260;2023-05-31T10:56:30;9.27;;;3.00;;
75499;SDS011;64076;51.466;7.260;2023-05-31T10:58:56;8.07;;;2.20;;
75499;SDS011;64076;51.466;7.260;2023-05-31T11:01:21;5.97;;;2.40;;
75499;SDS011;64076;51.466;7.260;2023-05-31T11:03:50;6.23;;;2.23;;
75499;SDS011;64076;51.466;7.260;2023-05-31T11:06:22;5.88;;;2.10;;
75499;SDS011;64076;51.466;7.260;2023-05-31T11:09:02;9.27;;;3.40;;
75499;SDS011;64076;51.466;7.260;2023-05-31T11:16:33;11.75;;;2.20;;
75499;SDS011;64076;51.466;7.260;2023-05-31T11:19:26;23.70;;;3.00;;
75499;SDS011;64076;51.466;7.260;2023-05-31T11:21:57;8.38;;;2.30;;
75499;SDS011;64076;51.466;7.260;2023-05-31T11:27:05;10.60;;;2.00;;
75499;SDS011;64076;51.466;7.260;2023-05-31T11:32:16;7.97;;;1.80;;
75499;SDS011;64076;51.466;7.260;2023-05-31T11:37:19;15.55;;;2.80;;
75499;SDS011;64076;51.466;7.260;2023-05-31T11:39:49;10.87;;;2.80;;
75499;SDS011;64076;51.466;7.260;2023-05-31T11:42:15;14.43;;;3.05;;
75499;SDS011;64076;51.466;7.260;2023-05-31T11:44:44;20.25;;;3.42;;
75499;SDS011;64076;51.466;7.260;2023-05-31T11:47:16;16.20;;;3.15;;
75499;SDS011;64076;51.466;7.260;2023-05-31T11:49:44;17.25;;;3.10;;
75499;SDS011;64076;51.466;7.260;2023-05-31T11:52:14;9.03;;;2.40;;
75499;SDS011;64076;51.466;7.260;2023-05-31T11:54:42;14.05;;;2.85;;
75499;SDS011;64076;51.466;7.260;2023-05-31T11:57:09;18.00;;;2.70;;
75499;SDS011;64076;51.466;7.260;2023-05-31T11:59:36;12.37;;;2.80;;
75499;SDS011;64076;51.466;7.260;2023-05-31T12:02:03;9.90;;;2.40;;
75499;SDS011;64076;51.466;7.260;2023-05-31T12:04:36;4.97;;;2.00;;
75499;SDS011;64076;51.466;7.260;2023-05-31T12:07:15;9.27;;;2.05;;
75499;SDS011;64076;51.466;7.260;2023-05-31T12:09:42;8.50;;;1.80;;
75499;SDS011;64076;51.466;7.260;2023-05-31T12:12:08;20.83;;;3.05;;
75499;SDS011;64076;51.466;7.260;2023-05-31T12:14:34;13.07;;;2.35;;
75499;SDS011;64076;51.466;7.260;2023-05-31T12:17:00;11.50;;;1.80;;
75499;SDS011;64076;51.466;7.260;2023-05-31T12:19:28;5.70;;;1.63;;
75499;SDS011;64076;51.466;7.260;2023-05-31T12:21:54;5.30;;;1.57;;
75499;SDS011;64076;51.466;7.260;2023-05-31T12:24:20;7.55;;;2.35;;
75499;SDS011;64076;51.466;7.260;2023-05-31T12:26:45;6.20;;;2.00;;
75499;SDS011;64076;51.466;7.260;2023-05-31T12:29:16;7.38;;;1.98;;
75499;SDS011;64076;51.466;7.260;2023-05-31T12:31:42;5.45;;;1.75;;
75499;SDS011;64076;51.466;7.260;2023-05-31T12:34:13;6.50;;;2.03;;
75499;SDS011;64076;51.466;7.260;2023-05-31T12:36:46;8.20;;;2.33;;
75499;SDS011;64076;51.466;7.260;2023-05-31T12:39:14;11.75;;;2.80;;
75499;SDS011;64076;51.466;7.260;2023-05-31T12:41:43;7.90;;;2.65;;
75499;SDS011;64076;51.466;7.260;2023-05-31T12:44:11;10.18;;;5.47;;
75499;SDS011;64076;51.466;7.260;2023-05-31T12:46:39;11.07;;;3.77;;
75499;SDS011;64076;51.466;7.260;2023-05-31T12:49:22;10.73;;;3.58;;
75499;SDS011;64076;51.466;7.260;2023-05-31T12:52:04;13.40;;;3.03;;
75499;SDS011;64076;51.466;7.260;2023-05-31T12:54:31;10.50;;;3.25;;
75499;SDS011;64076;51.466;7.260;2023-05-31T12:57:02;11.77;;;2.88;;
75499;SDS011;64076;51.466;7.260;2023-05-31T12:59:32;10.60;;;3.03;;
75499;SDS011;64076;51.466;7.260;2023-05-31T13:01:58;10.38;;;3.30;;
75499;SDS011;64076;51.466;7.260;2023-05-31T13:04:24;7.18;;;2.90;;
75499;SDS011;64076;51.466;7.260;2023-05-31T13:06:50;11.35;;;2.58;;
75499;SDS011;64076;51.466;7.260;2023-05-31T13:09:17;11.93;;;2.60;;
75499;SDS011;64076;51.466;7.260;2023-05-31T13:11:43;14.45;;;2.65;;
75499;SDS011;64076;51.466;7.260;2023-05-31T13:14:13;11.15;;;2.90;;
75499;SDS011;64076;51.466;7.260;2023-05-31T13:16:39;8.00;;;2.70;;
75499;SDS011;64076;51.466;7.260;2023-05-31T13:19:06;38.47;;;4.67;;
75499;SDS011;64076;51.466;7.260;2023-05-31T13:21:32;16.45;;;3.67;;
75499;SDS011;64076;51.466;7.260;2023-05-31T13:23:58;17.60;;;3.22;;
75499;SDS011;64076;51.466;7.260;2023-05-31T13:26:25;9.38;;;2.42;;
75499;SDS011;64076;51.466;7.260;2023-05-31T13:29:00;15.97;;;2.47;;
75499;SDS011;64076;51.466;7.260;2023-05-31T13:31:27;6.90;;;2.38;;
75499;SDS011;64076;51.466;7.260;2023-05-31T13:33:53;8.10;;;2.45;;
75499;SDS011;64076;51.466;7.260;2023-05-31T13:36:25;8.13;;;2.57;;
75499;SDS011;64076;51.466;7.260;2023-05-31T13:38:50;8.88;;;2.42;;
75499;SDS011;64076;51.466;7.260;2023-05-31T13:41:17;7.65;;;2.42;;
75499;SDS011;64076;51.466;7.260;2023-05-31T13:43:43;7.25;;;1.95;;
75499;SDS011;64076;51.466;7.260;2023-05-31T13:46:09;6.40;;;1.67;;
75499;SDS011;64076;51.466;7.260;2023-05-31T13:48:36;7.13;;;1.85;;
75499;SDS011;64076;51.466;7.260;2023-05-31T13:51:02;13.32;;;2.63;;
75499;SDS011;64076;51.466;7.260;2023-05-31T13:53:28;7.47;;;1.70;;
75499;SDS011;64076;51.466;7.260;2023-05-31T13:55:54;8.13;;;2.03;;
75499;SDS011;64076;51.466;7.260;2023-05-31T13:58:20;4.65;;;1.60;;
75499;SDS011;64076;51.466;7.260;2023-05-31T14:00:46;4.05;;;1.67;;
75499;SDS011;64076;51.466;7.260;2023-05-31T14:03:13;4.70;;;1.60;;
75499;SDS011;64076;51.466;7.260;2023-05-31T14:05:39;3.70;;;1.80;;
75499;SDS011;64076;51.466;7.260;2023-05-31T14:08:05;4.07;;;1.60;;
75499;SDS011;64076;51.466;7.260;2023-05-31T14:10:31;4.78;;;1.80;;
75499;SDS011;64076;51.466;7.260;2023-05-31T14:12:58;5.20;;;1.50;;
75499;SDS011;64076;51.466;7.260;2023-05-31T14:15:24;2.90;;;1.65;;
75499;SDS011;64076;51.466;7.260;2023-05-31T14:17:49;3.87;;;1.20;;
75499;SDS011;64076;51.466;7.260;2023-05-31T14:20:15;2.67;;;1.50;;
75499;SDS011;64076;51.466;7.260;2023-05-31T14:22:40;4.05;;;1.70;;
75499;SDS011;64076;51.466;7.260;2023-05-31T14:25:06;5.87;;;1.83;;
75499;SDS011;64076;51.466;7.260;2023-05-31T14:27:32;3.53;;;1.35;;
75499;SDS011;64076;51.466;7.260;2023-05-31T14:29:58;4.33;;;1.60;;
75499;SDS011;64076;51.466;7.260;2023-05-31T14:32:23;4.38;;;1.40;;
75499;SDS011;64076;51.466;7.260;2023-05-31T14:34:49;3.97;;;1.30;;
75499;SDS011;64076;51.466;7.260;2023-05-31T14:37:14;4.93;;;1.60;;
75499;SDS011;64076;51.466;7.260;2023-05-31T14:39:40;4.72;;;1.55;;
75499;SDS011;64076;51.466;7.260;2023-05-31T14:42:07;4.03;;;1.60;;
75499;SDS011;64076;51.466;7.260;2023-05-31T14:44:32;4.83;;;1.70;;
75499;SDS011;64076;51.466;7.260;2023-05-31T14:47:00;7.30;;;2.22;;
75499;SDS011;64076;51.466;7.260;2023-05-31T14:49:26;9.37;;;2.20;;
75499;SDS011;64076;51.466;7.260;2023-05-31T14:51:51;9.18;;;2.10;;
75499;SDS011;64076;51.466;7.260;2023-05-31T14:54:17;7.67;;;2.00;;
75499;SDS011;64076;51.466;7.260;2023-05-31T14:56:43;6.13;;;1.60;;
75499;SDS011;64076;51.466;7.260;2023-05-31T14:59:11;6.30;;;1.77;;
75499;SDS011;64076;51.466;7.260;2023-05-31T15:01:38;7.33;;;1.80;;
75499;SDS011;64076;51.466;7.260;2023-05-31T15:04:11;8.68;;;2.10;;